createdAt,value
2022-08-28T00:00:02.741Z,71.31
2022-08-28T00:02:29.543Z,72.24
2022-08-28T00:04:56.398Z,72.67
2022-08-28T00:07:23.253Z,72.21
2022-08-28T00:09:50.015Z,72.09
2022-08-28T00:12:17.070Z,70.84
2022-08-28T00:14:44.191Z,70.52
2022-08-28T00:17:11.376Z,71.70
2022-08-28T00:19:38.911Z,72.94
2022-08-28T00:22:07.605Z,72.34
2022-08-28T00:24:35.256Z,72.25
2022-08-28T00:27:20.346Z,71.71
2022-08-28T00:29:47.374Z,72.20
2022-08-28T00:32:14.185Z,74.67
2022-08-28T00:34:41.115Z,78.08
2022-08-28T00:37:08.056Z,75.73
2022-08-28T00:39:34.874Z,74.68
2022-08-28T00:42:02.055Z,72.45
2022-08-28T00:44:29.409Z,72.63
2022-08-28T00:46:58.036Z,72.32
2022-08-28T00:49:30.424Z,74.41
2022-08-28T00:52:06.106Z,73.51
2022-08-28T00:54:34.975Z,73.09
2022-08-28T00:57:05.256Z,71.91
2022-08-28T00:59:31.962Z,69.87
2022-08-28T01:01:59.727Z,69.47
2022-08-28T01:04:29.733Z,70.67
2022-08-28T01:06:58.685Z,70.95
2022-08-28T01:09:29.474Z,71.13
2022-08-28T01:12:03.279Z,68.66
2022-08-28T01:14:32.453Z,69.36
2022-08-28T01:16:59.438Z,68.52
2022-08-28T01:19:35.287Z,67.49
2022-08-28T01:22:50.246Z,66.33
2022-08-28T01:25:20.196Z,68.00
2022-08-28T01:27:47.056Z,67.85
2022-08-28T01:30:17.666Z,69.20
2022-08-28T01:32:48.087Z,68.83
2022-08-28T01:35:19.155Z,67.98
2022-08-28T01:37:46.580Z,67.63
2022-08-28T01:40:17.816Z,66.20
2022-08-28T01:42:45.109Z,66.01
2022-08-28T01:45:15.917Z,66.60
2022-08-28T01:47:44.721Z,66.76
2022-08-28T01:50:15.610Z,66.87
2022-08-28T01:52:42.799Z,68.02
2022-08-28T01:55:11.091Z,67.14
2022-08-28T01:57:50.658Z,66.93
2022-08-28T02:00:18.067Z,67.10
2022-08-28T02:02:44.867Z,68.58
2022-08-28T02:05:12.187Z,68.84
2022-08-28T02:07:39.230Z,67.59
2022-08-28T02:10:08.344Z,66.13
2022-08-28T02:12:36.048Z,65.62
2022-08-28T02:15:04.091Z,64.43
2022-08-28T02:17:30.860Z,64.62
2022-08-28T02:19:57.634Z,64.04
2022-08-28T02:22:24.348Z,63.17
2022-08-28T02:24:51.239Z,62.26
2022-08-28T02:27:18.492Z,63.50
2022-08-28T02:29:45.543Z,64.85
2022-08-28T02:32:12.601Z,66.42
2022-08-28T02:34:40.442Z,65.78
2022-08-28T02:37:08.933Z,64.84
2022-08-28T02:39:35.804Z,66.76
2022-08-28T02:42:02.658Z,65.90
2022-08-28T02:44:29.381Z,66.52
2022-08-28T02:46:56.129Z,64.77
2022-08-28T02:49:26.017Z,64.72
2022-08-28T02:51:58.709Z,65.42
2022-08-28T02:54:26.538Z,66.02
2022-08-28T02:56:54.478Z,65.33
2022-08-28T02:59:21.546Z,64.61
2022-08-28T03:01:48.733Z,64.49
2022-08-28T03:04:15.769Z,63.80
2022-08-28T03:06:42.643Z,64.75
2022-08-28T03:09:09.658Z,65.85
2022-08-28T03:11:37.165Z,65.79
2022-08-28T03:14:05.176Z,65.87
2022-08-28T03:16:32.631Z,65.00
2022-08-28T03:18:59.625Z,65.09
2022-08-28T03:21:26.466Z,66.61
2022-08-28T03:23:53.181Z,67.67
2022-08-28T03:26:21.088Z,69.53
2022-08-28T03:28:50.927Z,69.98
2022-08-28T03:31:22.186Z,68.93
2022-08-28T03:33:49.587Z,68.94
2022-08-28T03:36:21.664Z,69.62
2022-08-28T03:38:49.327Z,69.21
2022-08-28T03:41:18.494Z,69.64
2022-08-28T03:43:45.596Z,69.54
2022-08-28T03:46:15.480Z,69.36
2022-08-28T03:48:44.952Z,69.45
2022-08-28T03:51:18.191Z,68.43
2022-08-28T03:53:45.186Z,67.06
2022-08-28T03:56:15.711Z,66.95
2022-08-28T03:58:43.237Z,67.54
2022-08-28T04:01:10.472Z,66.63
2022-08-28T04:03:37.517Z,65.16
2022-08-28T04:06:04.393Z,65.15
2022-08-28T04:08:31.660Z,64.61
2022-08-28T04:11:00.999Z,67.20
2022-08-28T04:13:28.467Z,68.21
2022-08-28T04:16:07.979Z,68.18
2022-08-28T04:18:35.747Z,67.59
2022-08-28T04:21:08.035Z,67.73
2022-08-28T04:23:45.259Z,66.18
2022-08-28T04:26:15.087Z,67.76
2022-08-28T04:28:42.059Z,69.36
2022-08-28T04:31:09.108Z,70.68
2022-08-28T04:33:37.420Z,71.08
2022-08-28T04:36:06.674Z,70.52
2022-08-28T04:38:33.761Z,70.39
2022-08-28T04:41:06.792Z,69.38
2022-08-28T04:43:33.960Z,66.93
2022-08-28T04:46:08.147Z,67.19
2022-08-28T04:48:35.883Z,65.33
2022-08-28T04:51:05.852Z,65.22
2022-08-28T04:53:33.191Z,64.97
2022-08-28T04:56:00.856Z,64.16
2022-08-28T04:58:28.191Z,62.63
2022-08-28T05:00:55.269Z,61.93
2022-08-28T05:03:23.132Z,60.91
2022-08-28T05:05:53.305Z,58.96
2022-08-28T05:08:23.831Z,57.72
2022-08-28T05:10:51.141Z,56.24
2022-08-28T05:13:18.758Z,54.78
2022-08-28T05:15:49.146Z,52.91
2022-08-28T05:18:18.665Z,51.69
2022-08-28T05:20:46.656Z,50.48
2022-08-28T05:23:15.626Z,50.24
2022-08-28T05:25:45.569Z,48.81
2022-08-28T05:28:13.745Z,48.02
2022-08-28T05:30:42.137Z,47.59
2022-08-28T05:33:10.572Z,46.86
2022-08-28T05:35:40.226Z,45.63
2022-08-28T05:38:07.755Z,45.65
2022-08-28T05:40:41.127Z,45.13
2022-08-28T05:43:07.827Z,45.42
2022-08-28T05:45:34.620Z,44.21
2022-08-28T05:48:01.375Z,43.66
2022-08-28T05:50:28.143Z,43.44
2022-08-28T05:52:54.877Z,43.07
2022-08-28T05:55:21.916Z,44.48
2022-08-28T05:57:48.710Z,44.51
2022-08-28T06:00:15.652Z,43.26
2022-08-28T06:02:42.744Z,42.15
2022-08-28T06:05:13.000Z,42.69
2022-08-28T06:07:41.300Z,41.14
2022-08-28T06:10:10.621Z,41.11
2022-08-28T06:12:38.041Z,41.97
2022-08-28T06:15:06.120Z,41.12
2022-08-28T06:17:33.077Z,41.01
2022-08-28T06:19:59.828Z,40.05
2022-08-28T06:22:26.589Z,40.54
2022-08-28T06:24:54.092Z,43.63
2022-08-28T06:27:20.958Z,41.42
2022-08-28T06:29:47.734Z,44.52
2022-08-28T06:32:14.552Z,44.98
2022-08-28T06:34:41.672Z,45.41
2022-08-28T06:37:09.946Z,45.56
2022-08-28T06:39:36.813Z,46.19
2022-08-28T06:42:03.891Z,43.64
2022-08-28T06:44:32.437Z,44.79
2022-08-28T06:47:00.537Z,43.30
2022-08-28T06:49:27.487Z,43.82
2022-08-28T06:51:56.071Z,44.62
2022-08-28T06:54:23.623Z,42.57
2022-08-28T06:56:51.796Z,43.38
2022-08-28T06:59:18.568Z,42.93
2022-08-28T07:01:45.463Z,46.14
2022-08-28T07:04:14.665Z,45.13
2022-08-28T07:06:47.115Z,42.80
2022-08-28T07:09:15.113Z,43.11
2022-08-28T07:11:46.772Z,44.04
2022-08-28T07:14:13.556Z,43.69
2022-08-28T07:16:40.673Z,43.81
2022-08-28T07:19:10.651Z,43.59
2022-08-28T07:21:40.107Z,42.61
2022-08-28T07:24:07.700Z,42.62
2022-08-28T07:26:35.906Z,41.80
2022-08-28T07:29:10.073Z,44.15
2022-08-28T07:31:41.025Z,45.06
2022-08-28T07:34:09.779Z,43.41
2022-08-28T07:36:37.224Z,44.25
2022-08-28T07:39:05.418Z,45.30
2022-08-28T07:41:35.804Z,45.68
2022-08-28T07:44:21.407Z,45.32
2022-08-28T07:46:48.166Z,46.34
2022-08-28T07:49:18.731Z,48.17
2022-08-28T07:51:45.681Z,47.45
2022-08-28T07:54:16.868Z,49.88
2022-08-28T07:56:45.007Z,49.71
2022-08-28T07:59:12.108Z,48.65
2022-08-28T08:01:46.836Z,50.34
2022-08-28T08:04:16.267Z,49.00
2022-08-28T08:06:43.554Z,48.14
2022-08-28T08:09:13.204Z,47.56
2022-08-28T08:11:40.468Z,48.26
2022-08-28T08:14:07.679Z,49.44
2022-08-28T08:16:38.916Z,47.86
2022-08-28T08:19:06.433Z,48.51
2022-08-28T08:21:33.315Z,50.40
2022-08-28T08:24:00.090Z,48.55
2022-08-28T08:26:28.581Z,46.75
2022-08-28T08:28:56.340Z,45.42
2022-08-28T08:31:33.272Z,47.34
2022-08-28T08:34:04.970Z,45.89
2022-08-28T08:36:34.840Z,43.07
2022-08-28T08:39:02.291Z,42.82
2022-08-28T08:41:39.251Z,44.44
2022-08-28T08:44:40.530Z,43.35
2022-08-28T08:47:22.655Z,42.63
2022-08-28T08:50:00.515Z,42.56
2022-08-28T08:52:57.995Z,43.19
2022-08-28T08:55:28.957Z,43.53
2022-08-28T08:58:13.049Z,43.79
2022-08-28T09:01:05.446Z,42.00
2022-08-28T09:03:54.011Z,41.67
2022-08-28T09:06:29.894Z,40.33
2022-08-28T09:09:02.105Z,40.61
2022-08-28T09:11:56.934Z,41.01
2022-08-28T09:14:37.056Z,41.47
2022-08-28T09:17:06.986Z,42.50
2022-08-28T09:19:34.442Z,42.44
2022-08-28T09:22:01.766Z,41.21
2022-08-28T09:24:33.576Z,39.47
2022-08-28T09:27:00.524Z,41.38
2022-08-28T09:29:31.851Z,39.31
2022-08-28T09:32:12.412Z,37.68
2022-08-28T09:34:39.319Z,36.98
2022-08-28T09:37:08.537Z,35.77
2022-08-28T09:39:38.828Z,37.47
2022-08-28T09:42:33.371Z,35.22
2022-08-28T09:45:15.137Z,35.51
2022-08-28T09:47:46.354Z,34.83
2022-08-28T09:50:32.756Z,34.60
2022-08-28T09:53:17.794Z,35.94
2022-08-28T09:56:05.873Z,36.52
2022-08-28T09:58:39.526Z,35.78
2022-08-28T10:01:15.882Z,31.52
2022-08-28T10:04:16.841Z,31.37
2022-08-28T10:06:59.902Z,34.69
2022-08-28T10:09:39.087Z,32.74
2022-08-28T10:12:46.020Z,33.63
2022-08-28T10:15:19.604Z,30.48
2022-08-28T10:18:18.831Z,31.95
2022-08-28T10:20:45.669Z,32.12
2022-08-28T10:23:17.019Z,29.96
2022-08-28T10:26:02.340Z,30.90
2022-08-28T10:28:51.022Z,32.28
2022-08-28T10:32:09.844Z,34.19
2022-08-28T10:34:42.327Z,34.08
2022-08-28T10:37:30.879Z,32.93
2022-08-28T10:40:09.078Z,33.08
2022-08-28T10:42:40.753Z,29.89
2022-08-28T10:45:14.780Z,30.59
2022-08-28T10:47:51.479Z,32.31
2022-08-28T10:50:23.799Z,30.79
2022-08-28T10:53:15.126Z,31.45
2022-08-28T10:55:56.241Z,31.46
2022-08-28T10:58:26.323Z,30.44
2022-08-28T11:01:00.055Z,30.70
2022-08-28T11:03:35.812Z,31.02
2022-08-28T11:06:14.513Z,29.22
2022-08-28T11:08:41.994Z,30.53
2022-08-28T11:11:15.093Z,32.71
2022-08-28T11:14:25.623Z,34.13
2022-08-28T11:16:56.487Z,31.04
2022-08-28T11:19:43.416Z,32.27
2022-08-28T11:22:18.273Z,33.21
2022-08-28T11:24:55.141Z,34.70
2022-08-28T11:27:36.630Z,32.48
2022-08-28T11:30:06.718Z,34.21
2022-08-28T11:32:36.616Z,32.76
2022-08-28T11:35:27.673Z,32.87
2022-08-28T11:37:55.314Z,33.26
2022-08-28T11:40:31.986Z,36.47
2022-08-28T11:43:16.621Z,33.26
2022-08-28T11:45:46.763Z,31.97
2022-08-28T11:48:23.519Z,29.61
2022-08-28T11:50:59.231Z,30.78
2022-08-28T11:53:51.826Z,29.74
2022-08-28T11:56:40.809Z,30.19
2022-08-28T11:59:10.347Z,31.54
2022-08-28T12:01:37.769Z,29.00
2022-08-28T12:04:09.898Z,28.18
2022-08-28T12:06:48.641Z,27.79
2022-08-28T12:09:40.309Z,29.04
2022-08-28T12:12:33.086Z,28.73
2022-08-28T12:15:03.141Z,28.18
2022-08-28T12:17:44.055Z,28.77
2022-08-28T12:20:21.144Z,29.26
2022-08-28T12:22:57.574Z,29.56
2022-08-28T12:25:35.364Z,29.56
2022-08-28T12:28:27.432Z,30.88
2022-08-28T12:31:18.228Z,30.31
2022-08-28T12:33:57.976Z,30.29
2022-08-28T12:36:28.855Z,31.74
2022-08-28T12:39:00.673Z,30.54
2022-08-28T12:41:28.262Z,31.71
2022-08-28T12:43:58.538Z,29.31
2022-08-28T12:46:32.672Z,27.73
2022-08-28T12:49:06.046Z,28.15
2022-08-28T12:51:35.986Z,29.30
2022-08-28T12:54:08.433Z,29.60
2022-08-28T12:56:38.222Z,28.23
2022-08-28T12:59:40.231Z,29.93
2022-08-28T13:02:18.928Z,27.44
2022-08-28T13:04:52.075Z,28.63
2022-08-28T13:07:27.810Z,27.22
2022-08-28T13:09:56.976Z,27.78
2022-08-28T13:12:37.794Z,26.92
2022-08-28T13:15:43.198Z,27.68
2022-08-28T13:18:10.312Z,26.05
2022-08-28T13:20:38.465Z,27.21
2022-08-28T13:23:05.724Z,25.93
2022-08-28T13:25:36.332Z,27.17
2022-08-28T13:28:13.335Z,26.62
2022-08-28T13:30:40.770Z,25.59
2022-08-28T13:33:16.325Z,25.94
2022-08-28T13:35:43.312Z,24.94
2022-08-28T13:38:13.410Z,27.40
2022-08-28T13:40:59.156Z,27.73
2022-08-28T13:43:30.236Z,26.44
2022-08-28T13:45:58.147Z,28.44
2022-08-28T13:48:26.902Z,29.76
2022-08-28T13:51:10.218Z,27.71
2022-08-28T13:53:38.740Z,27.46
2022-08-28T13:56:06.362Z,28.22
2022-08-28T13:58:33.510Z,28.18
2022-08-28T14:01:00.818Z,28.91
2022-08-28T14:03:37.863Z,29.08
2022-08-28T14:06:17.502Z,29.71
2022-08-28T14:08:45.823Z,29.16
2022-08-28T14:11:15.202Z,29.26
2022-08-28T14:13:47.012Z,29.84
2022-08-28T14:16:22.962Z,28.63
2022-08-28T14:18:50.582Z,30.35
2022-08-28T14:21:17.390Z,30.16
2022-08-28T14:23:44.263Z,29.73
2022-08-28T14:26:11.403Z,30.47
2022-08-28T14:28:38.621Z,29.86
2022-08-28T14:31:11.006Z,30.59
2022-08-28T14:33:45.247Z,29.73
2022-08-28T14:36:19.053Z,29.62
2022-08-28T14:38:45.997Z,30.54
2022-08-28T14:41:14.898Z,29.96
2022-08-28T14:43:42.270Z,29.98
2022-08-28T14:46:14.457Z,33.02
2022-08-28T14:48:41.393Z,32.34
2022-08-28T14:51:08.349Z,32.21
2022-08-28T14:53:35.150Z,32.17
2022-08-28T14:56:01.997Z,31.18
2022-08-28T14:58:28.808Z,32.19
2022-08-28T15:00:55.663Z,32.56
2022-08-28T15:03:22.526Z,31.94
2022-08-28T15:06:03.644Z,32.99
2022-08-28T15:08:30.722Z,33.57
2022-08-28T15:10:57.728Z,35.39
2022-08-28T15:13:24.957Z,34.28
2022-08-28T15:16:20.387Z,34.67
2022-08-28T15:18:47.754Z,35.13
2022-08-28T15:21:27.164Z,37.11
2022-08-28T15:23:56.479Z,36.37
2022-08-28T15:26:24.965Z,36.63
2022-08-28T15:28:55.788Z,37.65
2022-08-28T15:31:25.547Z,35.76
2022-08-28T15:33:52.731Z,35.51
2022-08-28T15:36:20.242Z,36.33
2022-08-28T15:39:05.884Z,37.47
2022-08-28T15:41:32.648Z,37.23
2022-08-28T15:44:01.860Z,35.65
2022-08-28T15:46:33.884Z,35.68
2022-08-28T15:49:02.657Z,35.07
2022-08-28T15:51:30.724Z,36.42
2022-08-28T15:53:58.114Z,35.35
2022-08-28T15:56:25.722Z,35.04
2022-08-28T15:58:52.942Z,35.53
2022-08-28T16:01:21.094Z,38.07
2022-08-28T16:03:47.977Z,38.13
2022-08-28T16:06:18.222Z,38.55
2022-08-28T16:08:46.071Z,38.16
2022-08-28T16:11:20.873Z,38.78
2022-08-28T16:13:47.706Z,39.20
2022-08-28T16:16:14.603Z,39.36
2022-08-28T16:18:42.637Z,39.86
2022-08-28T16:21:11.075Z,39.55
2022-08-28T16:23:38.835Z,39.80
2022-08-28T16:26:07.779Z,41.91
2022-08-28T16:28:35.922Z,43.91
2022-08-28T16:31:07.299Z,46.91
2022-08-28T16:33:35.617Z,45.23
2022-08-28T16:36:09.914Z,46.10
2022-08-28T16:38:42.171Z,48.01
2022-08-28T16:41:21.911Z,48.03
2022-08-28T16:43:50.000Z,50.69
2022-08-28T16:46:20.185Z,49.67
2022-08-28T16:48:47.954Z,49.38
2022-08-28T16:51:16.238Z,48.89
2022-08-28T16:53:43.360Z,48.45
2022-08-28T16:56:12.946Z,48.92
2022-08-28T16:58:41.290Z,50.51
2022-08-28T17:01:08.917Z,48.81
2022-08-28T17:03:38.011Z,49.28
2022-08-28T17:06:26.939Z,48.50
2022-08-28T17:08:56.866Z,48.82
2022-08-28T17:11:26.219Z,50.02
2022-08-28T17:13:53.429Z,50.89
2022-08-28T17:16:20.953Z,50.04
2022-08-28T17:18:52.627Z,50.85
2022-08-28T17:21:39.861Z,51.41
2022-08-28T17:24:07.257Z,52.65
2022-08-28T17:26:34.282Z,52.35
2022-08-28T17:29:01.163Z,52.18
2022-08-28T17:31:28.007Z,53.22
2022-08-28T17:33:54.842Z,54.51
2022-08-28T17:36:33.585Z,54.71
2022-08-28T17:39:05.859Z,54.84
2022-08-28T17:41:33.691Z,53.82
2022-08-28T17:44:01.729Z,54.09
2022-08-28T17:46:31.878Z,54.10
2022-08-28T17:49:03.125Z,54.46
2022-08-28T17:51:41.865Z,54.46
2022-08-28T17:54:18.681Z,54.93
2022-08-28T17:56:45.731Z,55.24
2022-08-28T17:59:13.436Z,54.86
2022-08-28T18:01:41.902Z,54.76
2022-08-28T18:04:09.255Z,55.86
2022-08-28T18:06:36.465Z,54.99
2022-08-28T18:09:04.928Z,54.74
2022-08-28T18:11:31.811Z,55.28
2022-08-28T18:13:59.953Z,56.74
2022-08-28T18:16:31.152Z,55.91
2022-08-28T18:19:00.587Z,57.37
2022-08-28T18:21:28.243Z,57.79
2022-08-28T18:23:55.199Z,57.32
2022-08-28T18:26:22.087Z,57.34
2022-08-28T18:28:49.592Z,57.75
2022-08-28T18:31:16.479Z,58.23
2022-08-28T18:33:43.411Z,58.61
2022-08-28T18:36:12.340Z,58.83
2022-08-28T18:38:40.299Z,58.39
2022-08-28T18:41:08.736Z,61.00
2022-08-28T18:43:37.829Z,63.18
2022-08-28T18:46:06.282Z,60.80
2022-08-28T18:48:33.361Z,62.19
2022-08-28T18:51:02.010Z,62.25
2022-08-28T18:53:29.571Z,62.55
2022-08-28T18:55:56.805Z,62.94
2022-08-28T18:58:28.171Z,64.78
2022-08-28T19:00:55.228Z,64.20
2022-08-28T19:03:22.811Z,66.48
2022-08-28T19:05:50.193Z,65.12
2022-08-28T19:08:17.256Z,65.44
2022-08-28T19:10:45.394Z,63.61
2022-08-28T19:13:12.386Z,64.39
2022-08-28T19:15:39.286Z,63.98
2022-08-28T19:18:06.858Z,63.38
2022-08-28T19:20:34.485Z,64.24
2022-08-28T19:23:01.573Z,63.47
2022-08-28T19:25:30.817Z,63.67
2022-08-28T19:27:59.888Z,63.50
2022-08-28T19:30:29.999Z,63.64
2022-08-28T19:32:56.937Z,64.26
2022-08-28T19:35:24.925Z,63.44
2022-08-28T19:37:55.607Z,61.16
2022-08-28T19:40:24.451Z,62.14
2022-08-28T19:42:51.796Z,63.45
2022-08-28T19:45:20.755Z,61.72
2022-08-28T19:47:48.265Z,61.65
2022-08-28T19:50:15.689Z,63.57
2022-08-28T19:52:46.388Z,65.06
2022-08-28T19:55:20.048Z,63.24
2022-08-28T19:57:48.670Z,62.58
2022-08-28T20:00:21.752Z,62.09
2022-08-28T20:02:49.824Z,63.87
2022-08-28T20:05:16.888Z,61.88
2022-08-28T20:07:44.591Z,65.30
2022-08-28T20:10:12.998Z,65.66
2022-08-28T20:12:40.165Z,64.62
2022-08-28T20:15:16.331Z,63.92
2022-08-28T20:17:43.708Z,64.42
2022-08-28T20:20:18.175Z,63.64
2022-08-28T20:22:45.083Z,62.12
2022-08-28T20:25:12.297Z,64.50
2022-08-28T20:27:41.576Z,63.99
2022-08-28T20:30:11.142Z,64.92
2022-08-28T20:32:40.377Z,63.72
2022-08-28T20:35:09.964Z,62.11
2022-08-28T20:37:44.667Z,61.55
2022-08-28T20:40:18.807Z,61.61
2022-08-28T20:42:46.681Z,61.93
2022-08-28T20:45:15.767Z,61.19
2022-08-28T20:47:43.029Z,63.18
2022-08-28T20:50:10.394Z,62.37
2022-08-28T20:52:37.483Z,62.49
2022-08-28T20:55:05.565Z,61.96
2022-08-28T20:57:32.317Z,62.38
2022-08-28T21:00:02.255Z,61.91
2022-08-28T21:02:32.261Z,63.02
2022-08-28T21:05:00.323Z,61.32
2022-08-28T21:07:27.614Z,61.80
2022-08-28T21:10:06.963Z,61.98
2022-08-28T21:12:38.974Z,63.89
2022-08-28T21:15:12.643Z,63.84
2022-08-28T21:17:40.139Z,64.78
2022-08-28T21:20:10.840Z,64.28
2022-08-28T21:22:38.642Z,64.27
2022-08-28T21:25:07.355Z,67.80
2022-08-28T21:27:34.822Z,68.20
2022-08-28T21:30:02.012Z,69.74
2022-08-28T21:32:30.283Z,67.12
2022-08-28T21:34:57.194Z,68.84
2022-08-28T21:37:24.023Z,68.57
2022-08-28T21:39:51.103Z,70.14
2022-08-28T21:42:18.070Z,69.64
2022-08-28T21:44:51.456Z,69.97
2022-08-28T21:47:19.754Z,68.78
2022-08-28T21:49:49.736Z,69.90
2022-08-28T21:52:18.544Z,69.36
2022-08-28T21:54:45.680Z,68.22
2022-08-28T21:57:12.496Z,70.80
2022-08-28T21:59:39.310Z,68.65
2022-08-28T22:02:06.412Z,69.85
2022-08-28T22:04:33.482Z,69.01
2022-08-28T22:07:00.316Z,69.11
2022-08-28T22:09:29.176Z,66.92
2022-08-28T22:11:56.038Z,69.57
2022-08-28T22:14:24.694Z,67.31
2022-08-28T22:16:51.591Z,66.20
2022-08-28T22:19:18.423Z,66.09
2022-08-28T22:22:03.675Z,64.63
2022-08-28T22:24:30.679Z,67.83
2022-08-28T22:26:57.791Z,68.15
2022-08-28T22:29:25.255Z,67.67
2022-08-28T22:31:52.875Z,70.57
2022-08-28T22:34:20.052Z,69.26
2022-08-28T22:36:47.151Z,69.27
2022-08-28T22:39:14.094Z,70.23
2022-08-28T22:41:41.775Z,68.25
2022-08-28T22:44:08.538Z,68.49
2022-08-28T22:46:36.168Z,68.14
2022-08-28T22:49:04.105Z,69.40
2022-08-28T22:51:34.040Z,67.88
2022-08-28T22:54:00.903Z,68.38
2022-08-28T22:56:27.730Z,69.37
2022-08-28T22:58:54.595Z,68.16
2022-08-28T23:01:24.987Z,67.45
2022-08-28T23:03:52.493Z,68.63
2022-08-28T23:06:20.587Z,67.31
2022-08-28T23:08:47.828Z,69.47
2022-08-28T23:11:15.280Z,68.68
2022-08-28T23:13:42.100Z,68.66
2022-08-28T23:16:09.296Z,68.04
2022-08-28T23:19:06.748Z,67.21
2022-08-28T23:21:26.219Z,66.34
2022-08-28T23:23:53.405Z,65.10
2022-08-28T23:26:20.253Z,65.03
2022-08-28T23:28:47.150Z,64.87
2022-08-28T23:31:14.011Z,65.53
2022-08-28T23:33:41.364Z,64.94
2022-08-28T23:36:08.797Z,64.10
2022-08-28T23:38:39.669Z,66.01
2022-08-28T23:41:07.900Z,65.15
2022-08-28T23:43:34.929Z,65.44
2022-08-28T23:46:02.008Z,65.28
2022-08-28T23:48:29.420Z,65.36
2022-08-28T23:50:56.169Z,63.71
2022-08-28T23:53:22.928Z,64.96
2022-08-28T23:55:50.366Z,64.48
2022-08-28T23:58:20.784Z,66.45
